Portada
METAR-TAF:

METAR-TAF

Aeroports :

Rarotonga, Illes Cook

latitud: 21-12S, longitud: 159-49W, altitud: 7 m

Observació

L'informe es va fer fa 8 minuts, a les 08:00 UTC
Vent 2 kt del Est
Temperatura 26°C
Humitat 89%
Pressió 1015 hPa
Visibilitat 10 km o més
Escasses núvols a una alçada de 1600 ft
Cel ennuvolat a una alçada de 29000 ft

METAR: NCRG 180800Z 10002KT 9999 FEW016 BKN290 26/24 Q1015

Hora: 22:08 (08:08 UTC)

Pronòstic

L'informe es va fer fa 3 hores i 4 minuts, a les 05:04 UTC
Pronòstic vàlid del 18 a les 06 UTC al 19 a les 06 UTC
Vent 8 kt del Sud-Est
Visibilitat 10 km o més
Núvols disperses a una alçada de 1600 ft
Cel ennuvolat a una alçada de 10000 ft

TAF: NCRG 180504Z 1806/1906 14008KT 9999 SCT016 BKN100

Observacions i pronòstics meteorològics de més de 4000 aeroports (METAR i TAF).

Les estacions disponibles són els punts grocs i vermells al mapa.

Posi el ratolí al punt desitjat per veure el nom de l'estació.

Feu clic per veure les observacions i els pronòstics meteorològics.

Per canviar el mapa: feu clic els botons verds amb una creu de color negre per apropar; al botó verd amb un guió per allunyar la imatge; o en les fletxes verdes per a mapes adjacents.


METAR-TAF: